East Clyde - southern half: Past 24 Hour Conditions

 

Resolute Airport

12:00 PM CST 26 November 2014
This table is a summary of hourly weather conditions for the past 24 hours.
Date / Time
(CST)
Wind(knots) Conditions Visibility(km) Pressure(kPa) Air tempC) Relative humidity(%) Dew pointC) Wind Chill
26 November 2014
12:00 N 6 Mainly Clear 21 100.2 -31 76 -34 -40
11:00 N 5 Mainly Clear 24 100.2 -31 76 -34 -39
10:00 N 5 Mainly Clear 24 100.1 -31 75 -34 -39
9:00 N 4 Ice Crystals 24 100.1 -30 76 -33 -38
8:00 NNW 4 Ice Crystals 24 100.2 -30 76 -33 -37
7:00 NNW 5 Ice Crystals 24 100.2 -30 76 -33 -38
6:00 N 5 Ice Crystals 24 100.2 -30 76 -33 -39
5:00 N 6 Ice Crystals 24 100.2 -30 75 -33 -40
4:00 NNW 8 Ice Crystals 24 100.2 -29 76 -32 -40
3:00 N 10 Ice Crystals 24 100.2 -30 74 -33 -43
2:00 NNW 9 Ice Crystals 24 100.2 -29 75 -32 -41
1:00 NNW 8 Ice Crystals 24 100.2 -30 75 -33 -41
0:00 N 8 Ice Crystals 24 100.2 -30 76 -33 -40
25 November 2014
23:00 NNW 6 Ice Crystals 24 100.2 -30 78 -32 -39
22:00 NW 4 Light Snow 24 100.3 -30 77 -33 -38
21:00 N 5 Clear 24 100.3 -29 78 -31 -38
20:00 N 7 Clear 24 100.3 -28 77 -31 -39
19:00 NNW 5 Clear 24 100.4 -29 75 -32 -37
18:00 NNW 9 Mainly Clear 24 100.4 -28 72 -32 -40
17:00 N 9 Ice Crystals 24 100.4 -29 71 -32 -40
16:00 N 13 Ice Crystals 24 100.5 -28 71 -32 -42
15:00 NNE 18 Ice Crystals 24 100.4 -29 71 -33 -45
14:00 N 16 Ice Crystals 21 100.5 -29 73 -32 -44
13:00 N 15 Ice Crystals 16 100.4 -28 75 -31 -42
12:00 NNW 13 Partly Cloudy 23 100.4 -27 74 -30 -40
 
Map of Arctic - Eastern Arctic marine weather areas Baker Lake Airport Chesterfield Inlet Airport Coral Harbour Airport Gjoa Haven Airport Kugaaruk Airport Rankin Inlet Airport Shepherd Bay Airport Whale Cove Airport Arctic Bay Brevoort Island Qikiqtarjuaq Airport Cape Dorset Airport Cape Dyer Cape Hooper Clyde Airport Grise Fiord Airport Hall Beach Airport Igloolik Airport Iqaluit Airport Longstaff Bluff Pangnirtung Airport Pond Inlet Airport Repulse Bay Airport Resolute Airport Resolution Island Rowley Island Airport Taloyoak Airport Wager Bay Akulivik Airport Ivujivik Airport Puvirnituq Airport Kangiqsujuaq Airport Kangirsuk Airport Quaqtaq Airport Tasiujaq Airport Cape Kakkiviak Cape Kiglapait Nain Airport Saglek Cape Mercy Kimmirut Airport Aupaluk Airport Salluit Airport Kangiqsualujjuaq Airport Fort Ross
Legend: buoyBuoy land stationLand Station